Garmin®

93SV and Livescope - 19AH for 12+ hours of operation. 30Ah for 18+ hours. 32Ah for 20+ hours.

10" Screen and Livescope - 30Ah for 10 hours. 32Ah for 13+ hours. 48AH for 19+ hours. 

12" Screen and Livescope - 30Ah for 8+ hours. 32Ah for 10+ hours. 48Ah for 15+ hours.

You will find the expected operating times for your Garmin® electronics below using Amped Outdoors Lithium Batteries. All operating times are based off manufacturer supplied specifications. (Current draw at 12V) 

If you are running Livescope, please consider the extra power consumption when choosing the correct battery for your graph. 

Open Water Electronics

Garmin Model Working Voltage MFG Amp Draw 9AH SLA 6Ah LiFePO4 12Ah LiFePO4 18Ah LiFePO4 30Ah LiFePO4 60Ah LiFePO4 19AH NMC 32Ah NMC 48AH NMC
 Expected Operating Times in Hours
Striker 4" (All Models) 10.8-20V .4A 12.0 16.0 32.0 48.0 80.0 160.0 58.6 98.7 148.0
Striker 5" (All Models) 10.8-20V .4A 12.0 16.0 32.0 48.0 80.0 160.0 58.6 98.7 148.0
Striker 7" (All Models) 10.8-20V 0.55 8.7 11.6 23.3 34.9 58.2 116.4 42.6 71.8 107.6
Striker 9" (All Models) 10.8-20V .75A 6.4 8.5 17.1 25.6 42.7 85.3 31.2 52.6 78.9
EchoMAP CHIRP 43CV 10.8-20V .34A 14.1 18.8 37.6 56.5 94.1 188.2 68.9 116.1 174.1
EchoMAP CHIRP 74CV 10.8-20V 0.52A 9.2 12.3 24.6 36.9 61.5 123.1 45.1 75.9 113.8
EchoMAP CHIRP 93SV 10.8-20V .92A 5.2 7.0 13.9 20.9 34.8 69.6 25.5 42.9 64.3
EchoMAP Plus 43CV 10.8-20V .42A 11.4 15.2 30.5 45.7 76.2 152.4 55.8 94.0 141.0
Echomap Plus 64CV 10.8-20V 1A 4.8 6.4 12.8 19.2 32.0 64.0 23.4 39.5 59.2
Echomap Plus 74CV 10.8-20V 1.25A 3.8 5.1 10.2 15.4 25.6 51.2 18.7 31.6 47.4
Echomap Plus 94SV 10.8-20V 1.5A 3.2 4.3 8.5 12.8 21.3 42.7 15.6 26.3 39.5
GPS MAP 743xsv 10.8-20V 1.1A 4.4 5.8 11.6 17.5 29.1 58.2 21.3 35.9 53.8
GPS MAP 943xsv 10.8-20V 1.3A 3.7 4.9 9.8 14.8 24.6 49.2 18.0 30.4 45.5
GPS MAP 1243xsv 10.8-20V 1.7A 2.8 3.8 7.5 11.3 18.8 37.6 13.8 23.2 34.8
Echomap Plus UHD 63/64CV 10.8-20V 1A 4.8 6.4 12.8 19.2 32.0 64.0 23.4 39.5 59.2
Echomap Plus UHD 7374CV 10.8-20V 1.25A 3.8 5.1 10.2 15.4 25.6 51.2 18.7 31.6 47.4
Echomap Plus UHD 93/94SV 10.8-20V 1.5A 3.2 4.3 8.5 12.8 21.3 42.7 15.6 26.3 39.5
Echomap Ultra 102sv 10.8-20V 2.17A 2.2 2.9 5.9 8.8 14.7 29.5 10.8 18.2 27.3
Echomap Ultra 122sv/126SV 10.8-20V 2.5A 1.9 2.6 5.1 7.7 12.8 25.6 9.4 15.8 23.7
Livescope GLS10 and LVS32 10.8-32VDC .75A 6.4 8.5 17.1 25.6 42.7 85.3 31.2 52.6 78.9

Ice Fishing Electronics 

All numbers below report hours of expected operation for each battery. All batteries listed will fit into a Garmin Livescope Bag. 

Product  Stock 9Ah SLA 6Ah LiFePO4 12Ah LiFePO4 18AH LiFePO4

30Ah LiFePO4

WIDE

19.5Ah NMC 32AH NMC 48AH NMC
Striker Plus 5 6 8 16 24 40 30 49 74
Striker Plus 63cv 5 6 13 19 32 24 39 59
Panoptix Ice Kit 9 (Stock 12Ah) 8 15 23 38 29 47 71
Livescope Ice Kit 6 (Stock 12Ah) 4 7 11 18 12+ 22+ 34+